Red Wing, Minnesota
Current Conditions -  °F | °C
As of 11:31 AM on Friday 31 Oct 2014 (Local Time) from KRGK Reporting Station
Clear Clear  
Wind Chill: 30°   Ceiling: Unl
Heat Index: 37°   Visibility: 10mi
Dew Point: 16°   Wind: 10mph
Humidity: 41%   Direction: 40°NE
Pressure: 30.52"   Gusts: 16mph
Location:  44.57°N, 92.53°W
Report Text: KRGK 311631Z AUTO 04009G14KT 352V072 10SM CLR 03/M09 A3052 RMK AO2
Loading
Personal Weather Stations






























Interactive Weather Map New forecast layout! Learn more

10-Day Weather Forecast

Advertisements
Track Severe Weather on mobile